sensor_id;sensor_type;location;lat;lon;timestamp;P1;durP1;ratioP1;P2;durP2;ratioP2
6590;SDS011;3331;47.978;7.662;2022-10-19T03:02:05;12.93;;;6.83;;
6590;SDS011;3331;47.978;7.662;2022-10-19T03:04:31;10.73;;;6.20;;
6590;SDS011;3331;47.978;7.662;2022-10-19T03:06:57;14.03;;;6.10;;
6590;SDS011;3331;47.978;7.662;2022-10-19T03:09:24;15.07;;;7.47;;
6590;SDS011;3331;47.978;7.662;2022-10-19T03:11:50;9.80;;;7.00;;
6590;SDS011;3331;47.978;7.662;2022-10-19T03:14:17;9.87;;;7.27;;
6590;SDS011;3331;47.978;7.662;2022-10-19T03:16:43;15.90;;;7.67;;
6590;SDS011;3331;47.978;7.662;2022-10-19T03:19:11;9.60;;;5.97;;
6590;SDS011;3331;47.978;7.662;2022-10-19T03:21:37;12.83;;;5.40;;
6590;SDS011;3331;47.978;7.662;2022-10-19T03:24:04;13.87;;;5.77;;
6590;SDS011;3331;47.978;7.662;2022-10-19T03:26:30;12.53;;;5.50;;
6590;SDS011;3331;47.978;7.662;2022-10-19T03:28:57;9.03;;;5.23;;
6590;SDS011;3331;47.978;7.662;2022-10-19T03:31:23;11.47;;;5.43;;
6590;SDS011;3331;47.978;7.662;2022-10-19T03:33:51;12.70;;;5.43;;
6590;SDS011;3331;47.978;7.662;2022-10-19T03:36:20;12.37;;;6.10;;
6590;SDS011;3331;47.978;7.662;2022-10-19T03:38:48;12.40;;;5.20;;
6590;SDS011;3331;47.978;7.662;2022-10-19T03:41:14;11.23;;;5.67;;
6590;SDS011;3331;47.978;7.662;2022-10-19T03:43:41;10.23;;;5.43;;
6590;SDS011;3331;47.978;7.662;2022-10-19T03:46:07;11.47;;;6.13;;
6590;SDS011;3331;47.978;7.662;2022-10-19T03:48:34;12.33;;;6.50;;
6590;SDS011;3331;47.978;7.662;2022-10-19T03:51:00;9.57;;;6.43;;
6590;SDS011;3331;47.978;7.662;2022-10-19T03:53:29;10.50;;;7.00;;
6590;SDS011;3331;47.978;7.662;2022-10-19T03:56:03;11.17;;;7.53;;
6590;SDS011;3331;47.978;7.662;2022-10-19T03:58:30;9.23;;;7.43;;
6590;SDS011;3331;47.978;7.662;2022-10-19T04:00:56;7.93;;;6.40;;
6590;SDS011;3331;47.978;7.662;2022-10-19T04:03:23;9.87;;;7.90;;
6590;SDS011;3331;47.978;7.662;2022-10-19T04:05:49;9.80;;;7.67;;
6590;SDS011;3331;47.978;7.662;2022-10-19T04:08:16;10.97;;;8.23;;
6590;SDS011;3331;47.978;7.662;2022-10-19T04:10:43;10.00;;;8.47;;
6590;SDS011;3331;47.978;7.662;2022-10-19T04:13:13;8.87;;;6.80;;
6590;SDS011;3331;47.978;7.662;2022-10-19T04:15:39;13.70;;;7.40;;
6590;SDS011;3331;47.978;7.662;2022-10-19T04:18:05;9.50;;;7.60;;
6590;SDS011;3331;47.978;7.662;2022-10-19T04:20:32;12.77;;;8.03;;
6590;SDS011;3331;47.978;7.662;2022-10-19T04:22:58;12.03;;;7.33;;
6590;SDS011;3331;47.978;7.662;2022-10-19T04:25:25;10.00;;;7.33;;
6590;SDS011;3331;47.978;7.662;2022-10-19T04:27:52;13.43;;;7.80;;
6590;SDS011;3331;47.978;7.662;2022-10-19T04:30:19;10.23;;;7.57;;
6590;SDS011;3331;47.978;7.662;2022-10-19T04:32:45;12.50;;;7.60;;
6590;SDS011;3331;47.978;7.662;2022-10-19T04:35:12;9.50;;;7.03;;
6590;SDS011;3331;47.978;7.662;2022-10-19T04:37:38;10.60;;;7.33;;
6590;SDS011;3331;47.978;7.662;2022-10-19T04:40:05;11.67;;;7.73;;
6590;SDS011;3331;47.978;7.662;2022-10-19T04:42:32;9.77;;;7.57;;
6590;SDS011;3331;47.978;7.662;2022-10-19T04:44:59;15.10;;;8.47;;
6590;SDS011;3331;47.978;7.662;2022-10-19T04:47:27;8.70;;;6.83;;
6590;SDS011;3331;47.978;7.662;2022-10-19T04:49:53;10.07;;;7.60;;
6590;SDS011;3331;47.978;7.662;2022-10-19T04:52:20;9.90;;;7.80;;
6590;SDS011;3331;47.978;7.662;2022-10-19T04:54:46;10.20;;;7.87;;
6590;SDS011;3331;47.978;7.662;2022-10-19T04:57:13;12.17;;;8.77;;
6590;SDS011;3331;47.978;7.662;2022-10-19T04:59:39;10.63;;;8.17;;
6590;SDS011;3331;47.978;7.662;2022-10-19T05:02:07;10.83;;;8.70;;
6590;SDS011;3331;47.978;7.662;2022-10-19T05:04:33;11.17;;;8.63;;
6590;SDS011;3331;47.978;7.662;2022-10-19T05:07:00;10.63;;;8.50;;
6590;SDS011;3331;47.978;7.662;2022-10-19T05:09:26;9.57;;;7.13;;
6590;SDS011;3331;47.978;7.662;2022-10-19T05:11:52;9.67;;;6.90;;
6590;SDS011;3331;47.978;7.662;2022-10-19T05:14:19;10.33;;;8.00;;
6590;SDS011;3331;47.978;7.662;2022-10-19T05:16:45;10.60;;;8.60;;
6590;SDS011;3331;47.978;7.662;2022-10-19T05:19:13;9.67;;;8.40;;
6590;SDS011;3331;47.978;7.662;2022-10-19T05:21:40;9.03;;;7.80;;
6590;SDS011;3331;47.978;7.662;2022-10-19T05:24:06;9.93;;;7.57;;
6590;SDS011;3331;47.978;7.662;2022-10-19T05:26:33;9.53;;;8.00;;
6590;SDS011;3331;47.978;7.662;2022-10-19T05:28:59;10.03;;;7.70;;
6590;SDS011;3331;47.978;7.662;2022-10-19T05:31:28;10.53;;;8.10;;
6590;SDS011;3331;47.978;7.662;2022-10-19T05:33:55;10.60;;;8.67;;
6590;SDS011;3331;47.978;7.662;2022-10-19T05:36:24;10.83;;;8.43;;
6590;SDS011;3331;47.978;7.662;2022-10-19T05:38:51;12.00;;;8.47;;
6590;SDS011;3331;47.978;7.662;2022-10-19T05:41:18;10.40;;;7.83;;
6590;SDS011;3331;47.978;7.662;2022-10-19T05:43:45;12.87;;;8.57;;
6590;SDS011;3331;47.978;7.662;2022-10-19T05:46:13;11.07;;;8.40;;
6590;SDS011;3331;47.978;7.662;2022-10-19T05:48:41;10.87;;;7.70;;
6590;SDS011;3331;47.978;7.662;2022-10-19T05:51:09;11.33;;;8.10;;
6590;SDS011;3331;47.978;7.662;2022-10-19T05:53:37;8.50;;;6.43;;
6590;SDS011;3331;47.978;7.662;2022-10-19T05:56:04;7.87;;;6.33;;
6590;SDS011;3331;47.978;7.662;2022-10-19T05:58:31;9.77;;;6.00;;
6590;SDS011;3331;47.978;7.662;2022-10-19T06:00:58;6.93;;;6.03;;
6590;SDS011;3331;47.978;7.662;2022-10-19T06:03:24;9.63;;;7.23;;
6590;SDS011;3331;47.978;7.662;2022-10-19T06:05:51;9.47;;;7.40;;
6590;SDS011;3331;47.978;7.662;2022-10-19T06:08:18;11.03;;;7.77;;
6590;SDS011;3331;47.978;7.662;2022-10-19T06:10:46;6.60;;;5.40;;
6590;SDS011;3331;47.978;7.662;2022-10-19T06:13:13;8.43;;;6.10;;
6590;SDS011;3331;47.978;7.662;2022-10-19T06:15:40;8.80;;;5.53;;
6590;SDS011;3331;47.978;7.662;2022-10-19T06:18:06;8.93;;;6.70;;
6590;SDS011;3331;47.978;7.662;2022-10-19T06:20:33;5.53;;;4.13;;
6590;SDS011;3331;47.978;7.662;2022-10-19T06:23:00;10.00;;;5.67;;
6590;SDS011;3331;47.978;7.662;2022-10-19T06:25:28;7.60;;;5.97;;
6590;SDS011;3331;47.978;7.662;2022-10-19T06:27:55;8.43;;;6.40;;
6590;SDS011;3331;47.978;7.662;2022-10-19T06:30:22;8.30;;;6.30;;
6590;SDS011;3331;47.978;7.662;2022-10-19T06:32:48;7.83;;;5.63;;
6590;SDS011;3331;47.978;7.662;2022-10-19T06:35:15;7.90;;;6.43;;
6590;SDS011;3331;47.978;7.662;2022-10-19T06:37:41;7.63;;;5.53;;
6590;SDS011;3331;47.978;7.662;2022-10-19T06:40:08;7.63;;;6.03;;
6590;SDS011;3331;47.978;7.662;2022-10-19T07:34:25;6.90;;;5.67;;
6590;SDS011;3331;47.978;7.662;2022-10-19T07:36:58;8.50;;;6.60;;
6590;SDS011;3331;47.978;7.662;2022-10-19T07:39:24;6.73;;;5.83;;
6590;SDS011;3331;47.978;7.662;2022-10-19T07:41:54;7.83;;;4.23;;
6590;SDS011;3331;47.978;7.662;2022-10-19T07:44:21;7.23;;;5.10;;
6590;SDS011;3331;47.978;7.662;2022-10-19T07:46:47;5.83;;;4.63;;
6590;SDS011;3331;47.978;7.662;2022-10-19T07:49:14;4.90;;;4.40;;
6590;SDS011;3331;47.978;7.662;2022-10-19T07:51:44;10.77;;;5.13;;
6590;SDS011;3331;47.978;7.662;2022-10-19T07:54:11;7.67;;;5.10;;
6590;SDS011;3331;47.978;7.662;2022-10-19T07:56:38;9.23;;;5.77;;
6590;SDS011;3331;47.978;7.662;2022-10-19T07:59:05;4.97;;;4.30;;
6590;SDS011;3331;47.978;7.662;2022-10-19T08:01:32;5.30;;;4.30;;
6590;SDS011;3331;47.978;7.662;2022-10-19T08:03:59;5.80;;;4.37;;
6590;SDS011;3331;47.978;7.662;2022-10-19T08:06:26;3.77;;;3.27;;
6590;SDS011;3331;47.978;7.662;2022-10-19T08:08:54;4.23;;;3.27;;
6590;SDS011;3331;47.978;7.662;2022-10-19T08:11:21;9.40;;;6.77;;
6590;SDS011;3331;47.978;7.662;2022-10-19T08:14:02;8.50;;;4.17;;
6590;SDS011;3331;47.978;7.662;2022-10-19T08:16:29;6.70;;;5.17;;
6590;SDS011;3331;47.978;7.662;2022-10-19T08:18:57;5.70;;;4.53;;
6590;SDS011;3331;47.978;7.662;2022-10-19T08:21:24;6.13;;;4.30;;
6590;SDS011;3331;47.978;7.662;2022-10-19T08:23:50;4.30;;;3.80;;
6590;SDS011;3331;47.978;7.662;2022-10-19T08:26:18;6.17;;;4.83;;
6590;SDS011;3331;47.978;7.662;2022-10-19T08:28:45;4.73;;;4.10;;
6590;SDS011;3331;47.978;7.662;2022-10-19T08:31:12;5.33;;;4.03;;
6590;SDS011;3331;47.978;7.662;2022-10-19T08:33:43;7.50;;;4.50;;
6590;SDS011;3331;47.978;7.662;2022-10-19T08:36:43;6.57;;;4.40;;
6590;SDS011;3331;47.978;7.662;2022-10-19T08:39:03;6.93;;;4.17;;
6590;SDS011;3331;47.978;7.662;2022-10-19T08:41:32;7.53;;;5.43;;
6590;SDS011;3331;47.978;7.662;2022-10-19T08:44:08;7.77;;;5.63;;
6590;SDS011;3331;47.978;7.662;2022-10-19T08:46:41;8.77;;;5.87;;
6590;SDS011;3331;47.978;7.662;2022-10-19T08:49:09;8.20;;;5.90;;
6590;SDS011;3331;47.978;7.662;2022-10-19T08:51:38;13.13;;;6.50;;
6590;SDS011;3331;47.978;7.662;2022-10-19T08:54:05;9.13;;;5.73;;
6590;SDS011;3331;47.978;7.662;2022-10-19T08:56:39;9.87;;;6.27;;
6590;SDS011;3331;47.978;7.662;2022-10-19T08:59:10;9.20;;;6.20;;
6590;SDS011;3331;47.978;7.662;2022-10-19T09:01:38;9.07;;;6.30;;
6590;SDS011;3331;47.978;7.662;2022-10-19T09:04:06;9.10;;;5.33;;
6590;SDS011;3331;47.978;7.662;2022-10-19T09:06:36;6.70;;;5.40;;
6590;SDS011;3331;47.978;7.662;2022-10-19T09:09:05;8.27;;;5.90;;
6590;SDS011;3331;47.978;7.662;2022-10-19T09:11:31;11.13;;;6.10;;
6590;SDS011;3331;47.978;7.662;2022-10-19T09:14:04;10.67;;;6.13;;
6590;SDS011;3331;47.978;7.662;2022-10-19T09:16:30;7.83;;;5.80;;
6590;SDS011;3331;47.978;7.662;2022-10-19T09:18:57;8.63;;;6.20;;
6590;SDS011;3331;47.978;7.662;2022-10-19T09:21:25;8.70;;;6.27;;
6590;SDS011;3331;47.978;7.662;2022-10-19T09:23:54;9.33;;;6.23;;
6590;SDS011;3331;47.978;7.662;2022-10-19T09:26:26;11.40;;;6.43;;
6590;SDS011;3331;47.978;7.662;2022-10-19T09:37:41;7.53;;;5.90;;
6590;SDS011;3331;47.978;7.662;2022-10-19T09:40:10;10.10;;;7.00;;
6590;SDS011;3331;47.978;7.662;2022-10-19T09:42:41;10.57;;;6.50;;
6590;SDS011;3331;47.978;7.662;2022-10-19T09:45:13;13.10;;;8.23;;
6590;SDS011;3331;47.978;7.662;2022-10-19T09:47:42;9.33;;;6.90;;
6590;SDS011;3331;47.978;7.662;2022-10-19T09:50:15;10.17;;;6.07;;
6590;SDS011;3331;47.978;7.662;2022-10-19T09:55:28;14.17;;;7.90;;
6590;SDS011;3331;47.978;7.662;2022-10-19T09:58:00;11.53;;;7.43;;
6590;SDS011;3331;47.978;7.662;2022-10-19T10:00:32;13.67;;;7.40;;
6590;SDS011;3331;47.978;7.662;2022-10-19T10:02:59;11.77;;;7.50;;
6590;SDS011;3331;47.978;7.662;2022-10-19T10:05:28;9.63;;;5.73;;
6590;SDS011;3331;47.978;7.662;2022-10-19T10:07:56;15.13;;;8.23;;
6590;SDS011;3331;47.978;7.662;2022-10-19T10:10:23;8.03;;;6.13;;
6590;SDS011;3331;47.978;7.662;2022-10-19T10:12:52;9.83;;;6.63;;
6590;SDS011;3331;47.978;7.662;2022-10-19T10:15:20;10.40;;;7.40;;
6590;SDS011;3331;47.978;7.662;2022-10-19T10:17:47;11.87;;;6.77;;
6590;SDS011;3331;47.978;7.662;2022-10-19T10:20:18;10.03;;;6.47;;
6590;SDS011;3331;47.978;7.662;2022-10-19T10:22:51;8.77;;;6.57;;
6590;SDS011;3331;47.978;7.662;2022-10-19T10:25:18;9.73;;;6.57;;
6590;SDS011;3331;47.978;7.662;2022-10-19T10:27:52;17.53;;;7.40;;
6590;SDS011;3331;47.978;7.662;2022-10-19T10:30:20;14.40;;;7.37;;
6590;SDS011;3331;47.978;7.662;2022-10-19T10:32:48;12.93;;;7.20;;
6590;SDS011;3331;47.978;7.662;2022-10-19T10:35:15;7.87;;;6.00;;
6590;SDS011;3331;47.978;7.662;2022-10-19T10:37:43;11.60;;;7.97;;
6590;SDS011;3331;47.978;7.662;2022-10-19T10:40:15;11.03;;;6.93;;
6590;SDS011;3331;47.978;7.662;2022-10-19T10:42:44;9.40;;;7.00;;
6590;SDS011;3331;47.978;7.662;2022-10-19T10:45:15;10.93;;;7.37;;
6590;SDS011;3331;47.978;7.662;2022-10-19T10:47:43;9.33;;;6.77;;
6590;SDS011;3331;47.978;7.662;2022-10-19T10:50:14;9.83;;;7.30;;
6590;SDS011;3331;47.978;7.662;2022-10-19T10:52:42;11.27;;;7.67;;
6590;SDS011;3331;47.978;7.662;2022-10-19T10:55:21;12.57;;;7.50;;
6590;SDS011;3331;47.978;7.662;2022-10-19T10:57:48;8.93;;;7.27;;
6590;SDS011;3331;47.978;7.662;2022-10-19T11:00:17;8.53;;;6.87;;
6590;SDS011;3331;47.978;7.662;2022-10-19T11:02:47;8.87;;;7.00;;
6590;SDS011;3331;47.978;7.662;2022-10-19T11:05:16;11.83;;;7.17;;
6590;SDS011;3331;47.978;7.662;2022-10-19T11:07:45;4.83;;;3.93;;
6590;SDS011;3331;47.978;7.662;2022-10-19T11:10:14;10.07;;;6.70;;
6590;SDS011;3331;47.978;7.662;2022-10-19T11:12:42;12.10;;;6.93;;
6590;SDS011;3331;47.978;7.662;2022-10-19T11:15:12;10.00;;;7.17;;
6590;SDS011;3331;47.978;7.662;2022-10-19T11:17:42;9.10;;;5.80;;
6590;SDS011;3331;47.978;7.662;2022-10-19T11:20:14;9.33;;;7.33;;
6590;SDS011;3331;47.978;7.662;2022-10-19T11:22:42;15.63;;;8.00;;
6590;SDS011;3331;47.978;7.662;2022-10-19T11:25:22;12.47;;;8.87;;
6590;SDS011;3331;47.978;7.662;2022-10-19T11:27:53;10.37;;;8.27;;
6590;SDS011;3331;47.978;7.662;2022-10-19T11:30:23;9.53;;;7.70;;
6590;SDS011;3331;47.978;7.662;2022-10-19T11:32:52;11.17;;;7.83;;
6590;SDS011;3331;47.978;7.662;2022-10-19T11:35:29;9.87;;;7.57;;
6590;SDS011;3331;47.978;7.662;2022-10-19T11:37:59;9.67;;;7.20;;
6590;SDS011;3331;47.978;7.662;2022-10-19T11:40:29;9.07;;;7.10;;
6590;SDS011;3331;47.978;7.662;2022-10-19T11:42:59;9.47;;;6.93;;
6590;SDS011;3331;47.978;7.662;2022-10-19T11:45:34;12.27;;;8.90;;
6590;SDS011;3331;47.978;7.662;2022-10-19T11:48:07;14.07;;;8.27;;
6590;SDS011;3331;47.978;7.662;2022-10-19T11:50:42;13.47;;;8.00;;
6590;SDS011;3331;47.978;7.662;2022-10-19T11:53:11;14.30;;;8.60;;
6590;SDS011;3331;47.978;7.662;2022-10-19T11:55:42;13.60;;;8.30;;
6590;SDS011;3331;47.978;7.662;2022-10-19T11:58:19;12.80;;;7.33;;
6590;SDS011;3331;47.978;7.662;2022-10-19T12:00:53;11.27;;;8.83;;
6590;SDS011;3331;47.978;7.662;2022-10-19T12:06:10;8.90;;;7.07;;
6590;SDS011;3331;47.978;7.662;2022-10-19T12:08:43;11.70;;;8.87;;
6590;SDS011;3331;47.978;7.662;2022-10-19T12:11:20;7.60;;;5.33;;
6590;SDS011;3331;47.978;7.662;2022-10-19T12:13:52;14.13;;;8.43;;
6590;SDS011;3331;47.978;7.662;2022-10-19T12:16:20;13.07;;;7.30;;
6590;SDS011;3331;47.978;7.662;2022-10-19T12:18:50;11.23;;;7.90;;
6590;SDS011;3331;47.978;7.662;2022-10-19T12:21:21;12.20;;;8.57;;
6590;SDS011;3331;47.978;7.662;2022-10-19T12:23:49;11.50;;;7.87;;
6590;SDS011;3331;47.978;7.662;2022-10-19T12:26:16;14.40;;;8.87;;
6590;SDS011;3331;47.978;7.662;2022-10-19T12:28:45;15.20;;;8.20;;
6590;SDS011;3331;47.978;7.662;2022-10-19T12:31:13;15.13;;;7.90;;
6590;SDS011;3331;47.978;7.662;2022-10-19T12:33:42;11.47;;;7.43;;
6590;SDS011;3331;47.978;7.662;2022-10-19T12:36:16;10.43;;;8.27;;
6590;SDS011;3331;47.978;7.662;2022-10-19T12:38:49;10.07;;;7.67;;
6590;SDS011;3331;47.978;7.662;2022-10-19T12:41:18;10.23;;;7.70;;
6590;SDS011;3331;47.978;7.662;2022-10-19T12:43:52;10.90;;;7.93;;
6590;SDS011;3331;47.978;7.662;2022-10-19T12:46:23;12.97;;;8.10;;
6590;SDS011;3331;47.978;7.662;2022-10-19T12:51:43;16.37;;;8.67;;
6590;SDS011;3331;47.978;7.662;2022-10-19T12:54:11;13.53;;;8.70;;
6590;SDS011;3331;47.978;7.662;2022-10-19T12:56:44;13.40;;;8.40;;
6590;SDS011;3331;47.978;7.662;2022-10-19T12:59:17;9.07;;;7.10;;
6590;SDS011;3331;47.978;7.662;2022-10-19T13:01:45;12.90;;;7.73;;
6590;SDS011;3331;47.978;7.662;2022-10-19T13:04:12;9.43;;;7.47;;
6590;SDS011;3331;47.978;7.662;2022-10-19T13:06:40;15.03;;;8.43;;
6590;SDS011;3331;47.978;7.662;2022-10-19T13:09:07;12.43;;;8.33;;
6590;SDS011;3331;47.978;7.662;2022-10-19T13:11:36;15.33;;;8.30;;
6590;SDS011;3331;47.978;7.662;2022-10-19T13:14:41;28.33;;;15.63;;
6590;SDS011;3331;47.978;7.662;2022-10-19T13:17:09;20.27;;;15.43;;
6590;SDS011;3331;47.978;7.662;2022-10-19T13:19:37;18.03;;;12.80;;
6590;SDS011;3331;47.978;7.662;2022-10-19T13:27:38;16.93;;;11.60;;
6590;SDS011;3331;47.978;7.662;2022-10-19T13:30:05;15.00;;;11.40;;
6590;SDS011;3331;47.978;7.662;2022-10-19T13:32:51;13.97;;;9.00;;
6590;SDS011;3331;47.978;7.662;2022-10-19T13:38:21;10.07;;;7.13;;
6590;SDS011;3331;47.978;7.662;2022-10-19T13:43:40;11.07;;;7.87;;
6590;SDS011;3331;47.978;7.662;2022-10-19T13:46:15;10.87;;;7.30;;
6590;SDS011;3331;47.978;7.662;2022-10-19T13:51:30;16.43;;;10.37;;
6590;SDS011;3331;47.978;7.662;2022-10-19T13:54:00;10.73;;;6.67;;
6590;SDS011;3331;47.978;7.662;2022-10-19T13:56:34;6.00;;;5.03;;
6590;SDS011;3331;47.978;7.662;2022-10-19T13:59:16;9.27;;;6.10;;
6590;SDS011;3331;47.978;7.662;2022-10-19T14:01:54;15.67;;;10.73;;
6590;SDS011;3331;47.978;7.662;2022-10-19T14:04:28;12.07;;;7.00;;
6590;SDS011;3331;47.978;7.662;2022-10-19T14:06:56;8.87;;;6.27;;
6590;SDS011;3331;47.978;7.662;2022-10-19T14:09:30;12.83;;;10.00;;
6590;SDS011;3331;47.978;7.662;2022-10-19T14:11:58;13.40;;;8.07;;
6590;SDS011;3331;47.978;7.662;2022-10-19T14:14:36;17.93;;;11.13;;
6590;SDS011;3331;47.978;7.662;2022-10-19T14:17:12;7.20;;;4.57;;
6590;SDS011;3331;47.978;7.662;2022-10-19T14:19:41;9.03;;;5.47;;
6590;SDS011;3331;47.978;7.662;2022-10-19T14:22:17;8.03;;;6.23;;
6590;SDS011;3331;47.978;7.662;2022-10-19T14:24:43;20.50;;;13.03;;
6590;SDS011;3331;47.978;7.662;2022-10-19T14:27:12;10.10;;;7.40;;
6590;SDS011;3331;47.978;7.662;2022-10-19T14:29:44;19.47;;;13.53;;
6590;SDS011;3331;47.978;7.662;2022-10-19T14:32:10;9.23;;;7.10;;
6590;SDS011;3331;47.978;7.662;2022-10-19T14:34:38;18.70;;;11.90;;
6590;SDS011;3331;47.978;7.662;2022-10-19T14:37:04;21.13;;;11.00;;
6590;SDS011;3331;47.978;7.662;2022-10-19T14:39:37;22.43;;;12.30;;
6590;SDS011;3331;47.978;7.662;2022-10-19T14:42:04;19.57;;;11.40;;
6590;SDS011;3331;47.978;7.662;2022-10-19T14:44:36;16.87;;;11.13;;
6590;SDS011;3331;47.978;7.662;2022-10-19T14:47:08;22.60;;;12.97;;
6590;SDS011;3331;47.978;7.662;2022-10-19T14:49:41;14.13;;;9.97;;
6590;SDS011;3331;47.978;7.662;2022-10-19T14:52:07;14.27;;;9.43;;
6590;SDS011;3331;47.978;7.662;2022-10-19T14:54:35;11.33;;;7.57;;
6590;SDS011;3331;47.978;7.662;2022-10-19T14:57:05;9.03;;;7.23;;
6590;SDS011;3331;47.978;7.662;2022-10-19T14:59:33;10.30;;;6.63;;
6590;SDS011;3331;47.978;7.662;2022-10-19T15:02:01;10.27;;;6.27;;
6590;SDS011;3331;47.978;7.662;2022-10-19T15:04:30;12.03;;;8.03;;
6590;SDS011;3331;47.978;7.662;2022-10-19T15:06:59;13.53;;;9.93;;
6590;SDS011;3331;47.978;7.662;2022-10-19T15:09:28;12.90;;;9.47;;
6590;SDS011;3331;47.978;7.662;2022-10-19T15:11:54;16.20;;;10.47;;
6590;SDS011;3331;47.978;7.662;2022-10-19T15:14:25;22.30;;;14.63;;
6590;SDS011;3331;47.978;7.662;2022-10-19T15:16:54;12.00;;;9.03;;
6590;SDS011;3331;47.978;7.662;2022-10-19T15:19:22;17.20;;;10.27;;
6590;SDS011;3331;47.978;7.662;2022-10-19T15:24:57;24.50;;;13.67;;
6590;SDS011;3331;47.978;7.662;2022-10-19T15:27:27;19.73;;;11.43;;
6590;SDS011;3331;47.978;7.662;2022-10-19T15:29:55;15.50;;;10.73;;
6590;SDS011;3331;47.978;7.662;2022-10-19T15:32:22;20.77;;;13.03;;
6590;SDS011;3331;47.978;7.662;2022-10-19T15:34:49;19.07;;;11.40;;
6590;SDS011;3331;47.978;7.662;2022-10-19T15:37:16;21.17;;;14.07;;
6590;SDS011;3331;47.978;7.662;2022-10-19T15:39:43;18.10;;;11.53;;
6590;SDS011;3331;47.978;7.662;2022-10-19T15:42:29;12.63;;;7.20;;
6590;SDS011;3331;47.978;7.662;2022-10-19T15:44:57;17.57;;;12.80;;
6590;SDS011;3331;47.978;7.662;2022-10-19T15:47:24;22.13;;;12.43;;
6590;SDS011;3331;47.978;7.662;2022-10-19T15:49:55;21.10;;;13.10;;
6590;SDS011;3331;47.978;7.662;2022-10-19T15:52:22;22.63;;;12.17;;
6590;SDS011;3331;47.978;7.662;2022-10-19T15:54:49;20.43;;;13.43;;
6590;SDS011;3331;47.978;7.662;2022-10-19T15:57:30;13.03;;;9.10;;
6590;SDS011;3331;47.978;7.662;2022-10-19T15:59:57;18.20;;;12.23;;
6590;SDS011;3331;47.978;7.662;2022-10-19T16:02:24;31.23;;;18.47;;
6590;SDS011;3331;47.978;7.662;2022-10-19T16:04:50;39.87;;;22.63;;
6590;SDS011;3331;47.978;7.662;2022-10-19T16:07:18;21.83;;;12.63;;
6590;SDS011;3331;47.978;7.662;2022-10-19T16:09:46;21.63;;;13.10;;
6590;SDS011;3331;47.978;7.662;2022-10-19T16:12:12;16.93;;;11.57;;
6590;SDS011;3331;47.978;7.662;2022-10-19T16:14:40;17.37;;;12.43;;
6590;SDS011;3331;47.978;7.662;2022-10-19T16:17:07;15.17;;;11.37;;
6590;SDS011;3331;47.978;7.662;2022-10-19T16:19:35;17.20;;;11.77;;
6590;SDS011;3331;47.978;7.662;2022-10-19T16:22:02;15.33;;;11.83;;
6590;SDS011;3331;47.978;7.662;2022-10-19T16:24:28;19.87;;;12.20;;
6590;SDS011;3331;47.978;7.662;2022-10-19T16:26:55;16.33;;;11.47;;
6590;SDS011;3331;47.978;7.662;2022-10-19T16:29:22;15.93;;;10.87;;
6590;SDS011;3331;47.978;7.662;2022-10-19T16:31:50;12.27;;;9.70;;
6590;SDS011;3331;47.978;7.662;2022-10-19T16:34:16;17.40;;;10.83;;
6590;SDS011;3331;47.978;7.662;2022-10-19T16:36:43;13.50;;;10.03;;
6590;SDS011;3331;47.978;7.662;2022-10-19T16:39:09;21.37;;;13.00;;
6590;SDS011;3331;47.978;7.662;2022-10-19T16:41:35;16.27;;;11.27;;
6590;SDS011;3331;47.978;7.662;2022-10-19T16:44:02;12.90;;;9.90;;
6590;SDS011;3331;47.978;7.662;2022-10-19T16:46:28;14.53;;;10.63;;
6590;SDS011;3331;47.978;7.662;2022-10-19T16:48:56;13.80;;;9.67;;
6590;SDS011;3331;47.978;7.662;2022-10-19T16:51:24;13.87;;;9.63;;
6590;SDS011;3331;47.978;7.662;2022-10-19T16:53:51;11.10;;;8.37;;
6590;SDS011;3331;47.978;7.662;2022-10-19T16:56:18;12.50;;;10.03;;
6590;SDS011;3331;47.978;7.662;2022-10-19T16:58:44;11.50;;;9.07;;
6590;SDS011;3331;47.978;7.662;2022-10-19T17:01:12;12.43;;;9.43;;
6590;SDS011;3331;47.978;7.662;2022-10-19T17:03:39;11.40;;;9.03;;
6590;SDS011;3331;47.978;7.662;2022-10-19T17:06:07;12.13;;;8.43;;
6590;SDS011;3331;47.978;7.662;2022-10-19T17:08:35;14.70;;;10.60;;
6590;SDS011;3331;47.978;7.662;2022-10-19T17:11:07;18.13;;;11.17;;
6590;SDS011;3331;47.978;7.662;2022-10-19T17:13:34;14.37;;;9.50;;
6590;SDS011;3331;47.978;7.662;2022-10-19T17:16:00;15.27;;;9.50;;
6590;SDS011;3331;47.978;7.662;2022-10-19T17:18:27;15.13;;;10.63;;
6590;SDS011;3331;47.978;7.662;2022-10-19T17:20:53;17.27;;;10.97;;
6590;SDS011;3331;47.978;7.662;2022-10-19T17:23:21;18.90;;;11.70;;
6590;SDS011;3331;47.978;7.662;2022-10-19T17:25:48;13.20;;;9.87;;
6590;SDS011;3331;47.978;7.662;2022-10-19T17:28:14;13.00;;;9.07;;
6590;SDS011;3331;47.978;7.662;2022-10-19T17:30:40;13.90;;;9.47;;
6590;SDS011;3331;47.978;7.662;2022-10-19T17:33:07;13.83;;;8.57;;
6590;SDS011;3331;47.978;7.662;2022-10-19T17:35:34;11.80;;;8.73;;
6590;SDS011;3331;47.978;7.662;2022-10-19T17:38:00;13.50;;;9.43;;
6590;SDS011;3331;47.978;7.662;2022-10-19T17:40:28;12.20;;;8.63;;
6590;SDS011;3331;47.978;7.662;2022-10-19T17:42:54;13.50;;;10.03;;
6590;SDS011;3331;47.978;7.662;2022-10-19T17:45:21;13.53;;;8.77;;
6590;SDS011;3331;47.978;7.662;2022-10-19T17:47:47;13.20;;;8.33;;
6590;SDS011;3331;47.978;7.662;2022-10-19T17:50:14;12.37;;;9.27;;
6590;SDS011;3331;47.978;7.662;2022-10-19T17:52:40;12.47;;;8.53;;
6590;SDS011;3331;47.978;7.662;2022-10-19T17:55:07;12.47;;;9.10;;
6590;SDS011;3331;47.978;7.662;2022-10-19T17:57:35;13.27;;;9.47;;
6590;SDS011;3331;47.978;7.662;2022-10-19T18:00:01;13.80;;;9.30;;
6590;SDS011;3331;47.978;7.662;2022-10-19T18:02:28;20.87;;;14.60;;
6590;SDS011;3331;47.978;7.662;2022-10-19T18:04:54;18.50;;;12.00;;
6590;SDS011;3331;47.978;7.662;2022-10-19T18:07:21;15.60;;;9.70;;
6590;SDS011;3331;47.978;7.662;2022-10-19T18:09:50;14.50;;;9.23;;
6590;SDS011;3331;47.978;7.662;2022-10-19T18:12:18;10.77;;;8.07;;
6590;SDS011;3331;47.978;7.662;2022-10-19T18:14:46;14.00;;;9.83;;
6590;SDS011;3331;47.978;7.662;2022-10-19T18:17:13;12.63;;;9.47;;
6590;SDS011;3331;47.978;7.662;2022-10-19T18:19:39;12.40;;;8.97;;
6590;SDS011;3331;47.978;7.662;2022-10-19T18:22:05;13.93;;;8.63;;
6590;SDS011;3331;47.978;7.662;2022-10-19T18:24:32;11.30;;;7.60;;
6590;SDS011;3331;47.978;7.662;2022-10-19T18:26:58;12.10;;;8.60;;
6590;SDS011;3331;47.978;7.662;2022-10-19T18:29:25;15.03;;;8.90;;
6590;SDS011;3331;47.978;7.662;2022-10-19T18:34:51;12.80;;;9.77;;
6590;SDS011;3331;47.978;7.662;2022-10-19T18:37:18;16.33;;;9.63;;
6590;SDS011;3331;47.978;7.662;2022-10-19T18:39:44;13.60;;;9.13;;
6590;SDS011;3331;47.978;7.662;2022-10-19T18:42:11;11.67;;;8.53;;
6590;SDS011;3331;47.978;7.662;2022-10-19T18:44:37;10.93;;;8.20;;
6590;SDS011;3331;47.978;7.662;2022-10-19T18:47:03;14.03;;;9.50;;
6590;SDS011;3331;47.978;7.662;2022-10-19T18:49:30;13.33;;;9.53;;
6590;SDS011;3331;47.978;7.662;2022-10-19T18:51:57;14.03;;;9.23;;
6590;SDS011;3331;47.978;7.662;2022-10-19T18:54:24;11.43;;;8.50;;
6590;SDS011;3331;47.978;7.662;2022-10-19T18:56:52;12.37;;;8.50;;
6590;SDS011;3331;47.978;7.662;2022-10-19T18:59:18;12.10;;;8.77;;
6590;SDS011;3331;47.978;7.662;2022-10-19T19:01:44;11.60;;;9.47;;
6590;SDS011;3331;47.978;7.662;2022-10-19T19:04:11;11.87;;;9.60;;
6590;SDS011;3331;47.978;7.662;2022-10-19T19:06:37;12.03;;;8.37;;
6590;SDS011;3331;47.978;7.662;2022-10-19T19:09:07;10.43;;;8.40;;
6590;SDS011;3331;47.978;7.662;2022-10-19T19:11:35;10.87;;;8.27;;
6590;SDS011;3331;47.978;7.662;2022-10-19T19:14:03;12.63;;;7.63;;
6590;SDS011;3331;47.978;7.662;2022-10-19T19:16:31;11.00;;;8.33;;
6590;SDS011;3331;47.978;7.662;2022-10-19T19:18:58;9.97;;;8.67;;
6590;SDS011;3331;47.978;7.662;2022-10-19T19:21:25;13.27;;;8.47;;
6590;SDS011;3331;47.978;7.662;2022-10-19T19:23:52;11.20;;;8.33;;
6590;SDS011;3331;47.978;7.662;2022-10-19T19:26:20;13.60;;;8.67;;
6590;SDS011;3331;47.978;7.662;2022-10-19T19:28:47;11.77;;;8.00;;
6590;SDS011;3331;47.978;7.662;2022-10-19T19:31:14;10.23;;;8.43;;
6590;SDS011;3331;47.978;7.662;2022-10-19T19:33:40;12.90;;;9.40;;
6590;SDS011;3331;47.978;7.662;2022-10-19T19:36:07;9.13;;;7.40;;
6590;SDS011;3331;47.978;7.662;2022-10-19T19:38:34;11.00;;;8.80;;
6590;SDS011;3331;47.978;7.662;2022-10-19T19:41:02;12.97;;;9.03;;